Time;durP1;ratioP1;P1;durP2;ratioP2;P2;SDS_P1;SDS_P2;PMS_P1;PMS_P2;Temp;Humidity;BMP_temperature;BMP_pressure;BME280_temperature;BME280_humidity;BME280_pressure;Samples;Min_cycle;Max_cycle;Signal;HPM_P1;HPM_P2
2023/01/01 00:01:41;;;;;;;35.78;14.13;;;;;;;16.39;48.76;100668.56;5076667;28;20574;-62
2023/01/01 00:04:12;;;;;;;60.83;17.00;;;;;;;16.14;50.83;100671.66;5110942;28;20142;-62
2023/01/01 00:06:40;;;;;;;47.35;17.98;;;;;;;15.99;51.37;100684.25;5059941;28;20044;-62
2023/01/01 00:11:54;;;;;;;71.53;30.50;;;;;;;15.75;53.27;100678.25;5093718;28;20059;-62
2023/01/01 00:14:22;;;;;;;91.18;41.38;;;;;;;15.55;54.62;100681.53;5050962;28;20493;-61
2023/01/01 00:16:49;;;;;;;95.65;43.55;;;;;;;15.41;55.00;100663.69;5039299;28;20049;-62
2023/01/01 00:19:16;;;;;;;133.93;48.30;;;;;;;15.31;55.47;100666.63;5023238;28;20540;-62
2023/01/01 00:21:45;;;;;;;88.82;42.80;;;;;;;15.13;56.12;100663.53;5072378;28;20044;-62
2023/01/01 00:24:12;;;;;;;94.45;43.83;;;;;;;15.14;55.72;100662.53;5040404;28;20040;-62
2023/01/01 00:26:39;;;;;;;90.90;43.78;;;;;;;14.82;56.72;100661.88;5039379;28;20037;-62
2023/01/01 00:29:06;;;;;;;95.25;43.67;;;;;;;14.83;57.34;100671.56;5073991;28;20095;-62
2023/01/01 00:31:34;;;;;;;78.78;38.80;;;;;;;14.72;57.70;100661.34;5072329;28;20443;-62
2023/01/01 00:34:01;;;;;;;73.38;33.13;;;;;;;14.71;57.12;100670.34;5072359;28;20036;-62
2023/01/01 00:36:29;;;;;;;68.28;30.15;;;;;;;14.64;57.37;100670.22;5055663;28;20094;-62
2023/01/01 00:38:57;;;;;;;58.75;24.35;;;;;;;14.61;58.06;100672.44;5043856;28;20573;-62
2023/01/01 00:41:24;;;;;;;50.10;20.98;;;;;;;14.61;57.14;100675.97;5072398;28;20059;-62
2023/01/01 00:43:51;;;;;;;36.72;16.55;;;;;;;14.64;56.90;100672.91;5040909;28;20045;-62
2023/01/01 00:46:19;;;;;;;35.58;13.75;;;;;;;14.54;55.59;100683.81;5067062;28;20048;-61
2023/01/01 00:48:46;;;;;;;38.13;11.50;;;;;;;14.75;55.28;100671.63;5043637;28;20056;-62
2023/01/01 00:51:13;;;;;;;23.13;9.05;;;;;;;14.73;54.66;100676.31;5056125;28;20150;-62
2023/01/01 00:53:40;;;;;;;26.15;9.07;;;;;;;14.71;54.58;100671.16;5072331;28;20055;-62
2023/01/01 00:56:07;;;;;;;22.10;8.20;;;;;;;14.80;53.84;100677.25;5072515;28;20055;-63
2023/01/01 00:58:35;;;;;;;21.38;7.45;;;;;;;14.77;54.27;100682.94;5032969;28;20049;-62
2023/01/01 01:01:02;;;;;;;23.05;7.35;;;;;;;14.74;54.37;100669.97;5072531;28;20048;-62
2023/01/01 01:03:29;;;;;;;31.38;7.40;;;;;;;14.69;54.52;100678.53;5088693;28;20063;-62
2023/01/01 01:08:37;;;;;;;25.75;6.40;;;;;;;14.67;53.45;100677.88;5095524;27;20129;-61
2023/01/01 01:11:10;;;;;;;18.90;6.05;;;;;;;14.62;53.14;100690.94;5090855;28;20080;-62
2023/01/01 01:13:38;;;;;;;25.65;6.25;;;;;;;14.73;52.55;100689.66;5083208;28;20403;-61
2023/01/01 01:16:16;;;;;;;21.38;5.53;;;;;;;14.70;53.09;100693.56;5059874;28;20516;-61
2023/01/01 01:18:44;;;;;;;18.70;5.47;;;;;;;14.68;53.19;100686.72;5069207;28;20048;-61
2023/01/01 01:21:17;;;;;;;13.43;4.80;;;;;;;14.79;51.63;100696.97;5069185;28;20048;-61
2023/01/01 01:23:45;;;;;;;20.25;4.70;;;;;;;14.72;51.73;100690.69;5069516;28;20044;-62
2023/01/01 01:26:14;;;;;;;21.42;5.60;;;;;;;14.71;51.91;100699.72;5075878;28;20049;-62
2023/01/01 01:28:43;;;;;;;19.25;4.85;;;;;;;14.76;51.26;100700.00;5052478;28;20041;-61
2023/01/01 01:31:15;;;;;;;21.45;4.30;;;;;;;14.73;51.17;100695.84;5053100;28;20098;-61
2023/01/01 01:33:44;;;;;;;12.90;3.83;;;;;;;14.62;51.29;100706.97;5073846;28;20059;-61
2023/01/01 01:36:12;;;;;;;13.05;3.90;;;;;;;14.68;50.64;100700.91;5059758;28;20045;-61
2023/01/01 01:38:40;;;;;;;18.30;3.90;;;;;;;14.74;49.85;100710.03;5085708;28;20047;-61
2023/01/01 01:41:07;;;;;;;11.27;3.35;;;;;;;14.69;50.12;100715.09;5068861;28;20056;-61
2023/01/01 01:46:27;;;;;;;12.18;3.67;;;;;;;14.86;48.82;100715.75;5111108;27;20387;-62
2023/01/01 01:48:58;;;;;;;13.90;3.70;;;;;;;14.74;48.83;100718.88;5095006;28;20405;-62
2023/01/01 01:51:31;;;;;;;17.33;5.45;;;;;;;14.83;48.67;100727.63;5047723;28;20502;-62
2023/01/01 01:54:03;;;;;;;12.98;3.30;;;;;;;14.86;48.97;100729.09;5093203;28;20043;-62
2023/01/01 01:56:38;;;;;;;;;;;;;;;14.87;48.27;100717.41;5043502;28;20516;-62
2023/01/01 01:59:05;;;;;;;11.43;3.20;;;;;;;14.74;48.35;100726.88;5067306;28;19969;-62
2023/01/01 02:01:32;;;;;;;12.77;3.30;;;;;;;14.74;49.65;100731.41;5092675;28;20071;-62
2023/01/01 02:04:01;;;;;;;12.13;3.00;;;;;;;14.73;49.74;100733.22;5092978;28;20120;-62
2023/01/01 02:06:30;;;;;;;12.52;3.42;;;;;;;14.70;48.83;100724.78;5110134;28;20040;-62
2023/01/01 02:09:00;;;;;;;14.20;3.35;;;;;;;14.63;50.18;100731.84;5047406;28;20055;-62
2023/01/01 02:11:28;;;;;;;16.17;3.90;;;;;;;14.70;48.47;100717.56;5043325;28;20121;-62
2023/01/01 02:13:56;;;;;;;16.73;3.45;;;;;;;14.78;47.86;100736.19;5092609;28;20050;-62
2023/01/01 02:16:47;;;;;;;11.23;3.28;;;;;;;14.81;48.17;100724.31;5092502;28;20558;-62
2023/01/01 02:19:45;;;;;;;10.75;2.95;;;;;;;14.73;48.71;100725.22;5092093;28;20158;-62
2023/01/01 02:22:22;;;;;;;9.45;3.30;;;;;;;14.73;48.56;100722.53;5097022;28;20054;-62
2023/01/01 02:25:03;;;;;;;9.52;3.17;;;;;;;14.71;49.04;100732.56;5083279;28;20044;-62
2023/01/01 02:27:46;;;;;;;12.67;4.40;;;;;;;14.55;50.35;100722.00;5058989;28;20485;-62
2023/01/01 02:30:15;;;;;;;13.55;3.10;;;;;;;14.52;51.16;100733.06;5092694;28;20064;-61
2023/01/01 02:32:48;;;;;;;12.27;2.92;;;;;;;14.48;51.33;100732.59;5092216;28;20409;-62
2023/01/01 02:35:33;;;;;;;14.55;3.20;;;;;;;14.35;51.88;100727.00;5108942;28;20449;-62
2023/01/01 02:38:07;;;;;;;17.90;3.38;;;;;;;14.33;52.36;100723.69;5075340;28;20417;-61
2023/01/01 02:40:40;;;;;;;16.35;3.15;;;;;;;14.26;51.57;100720.94;5063459;28;20449;-61
2023/01/01 02:43:07;;;;;;;11.35;2.83;;;;;;;14.17;51.55;100725.50;5083313;28;20253;-61
2023/01/01 02:45:34;;;;;;;10.23;3.05;;;;;;;14.19;52.34;100730.66;5108485;28;20087;-62
2023/01/01 02:48:04;;;;;;;13.30;3.05;;;;;;;14.14;51.95;100739.19;5074990;28;20085;-61
2023/01/01 02:50:32;;;;;;;10.15;3.00;;;;;;;14.13;52.62;100728.69;5075495;28;20048;-61
2023/01/01 02:53:18;;;;;;;8.88;3.47;;;;;;;14.18;51.56;100727.13;5063088;28;20040;-61
2023/01/01 02:56:09;;;;;;;11.00;2.80;;;;;;;14.12;51.85;100735.03;5089077;28;20049;-61
2023/01/01 03:01:59;;;;;;;9.80;2.60;;;;;;;14.21;51.09;100737.47;5054237;28;20068;-61
2023/01/01 03:04:40;;;;;;;10.88;2.60;;;;;;;14.20;51.07;100727.78;5034328;28;20559;-61
2023/01/01 03:07:23;;;;;;;11.98;2.75;;;;;;;14.12;51.12;100735.88;5043824;28;20068;-61
2023/01/01 03:10:02;;;;;;;13.10;3.00;;;;;;;14.19;50.96;100718.16;5058535;28;20524;-61
2023/01/01 03:12:42;;;;;;;9.05;2.50;;;;;;;14.25;51.15;100729.13;5057776;28;20044;-61
2023/01/01 03:15:33;;;;;;;10.23;3.05;;;;;;;14.26;51.10;100728.94;5050453;28;20040;-62
2023/01/01 03:18:14;;;;;;;12.55;2.60;;;;;;;14.24;51.81;100730.13;5082111;28;20048;-61
2023/01/01 03:20:47;;;;;;;9.30;2.65;;;;;;;14.16;52.43;100734.50;5073759;28;20082;-61
2023/01/01 03:23:21;;;;;;;12.32;2.60;;;;;;;14.16;52.24;100745.16;5021717;28;20056;-61
2023/01/01 03:25:52;;;;;;;13.75;2.60;;;;;;;14.16;51.78;100752.34;5004393;28;20048;-61
2023/01/01 03:28:26;;;;;;;9.15;2.58;;;;;;;14.09;52.28;100746.88;5028537;28;20053;-61
2023/01/01 03:30:55;;;;;;;12.32;2.60;;;;;;;14.06;53.17;100759.75;5021695;28;20508;-61
2023/01/01 03:33:34;;;;;;;10.85;2.75;;;;;;;14.00;53.13;100751.44;5055340;28;20052;-62
2023/01/01 03:36:09;;;;;;;13.55;2.78;;;;;;;14.01;53.29;100762.94;5055123;28;20435;-62
2023/01/01 03:38:50;;;;;;;10.77;2.55;;;;;;;14.22;52.29;100756.97;5037441;28;20041;-62
2023/01/01 03:41:26;;;;;;;11.05;2.28;;;;;;;14.13;52.72;100758.84;5055444;28;20064;-62
2023/01/01 03:44:04;;;;;;;9.60;2.72;;;;;;;14.09;53.27;100740.72;5037784;28;20045;-61
2023/01/01 03:46:34;;;;;;;9.40;2.50;;;;;;;14.07;53.10;100750.75;5068989;28;20046;-62
2023/01/01 03:49:05;;;;;;;7.65;2.30;;;;;;;14.12;52.65;100765.22;5095530;28;20509;-62
2023/01/01 03:52:03;;;;;;;10.45;2.63;;;;;;;14.17;53.10;100770.00;5095448;28;20126;-62
2023/01/01 03:55:09;;;;;;;9.07;2.42;;;;;;;14.21;53.05;100763.31;5093961;28;20063;-61
2023/01/01 03:57:54;;;;;;;14.98;2.45;;;;;;;14.21;52.87;100777.47;5093712;28;20048;-62
2023/01/01 04:00:26;;;;;;;8.35;2.00;;;;;;;14.26;52.53;100776.13;5095164;28;20467;-62
2023/01/01 04:02:58;;;;;;;10.88;2.60;;;;;;;14.24;53.05;100780.81;5095008;28;20127;-62
2023/01/01 04:05:27;;;;;;;6.75;2.78;;;;;;;14.31;53.14;100790.59;5095086;28;20039;-61
2023/01/01 04:07:54;;;;;;;10.95;2.58;;;;;;;14.31;53.16;100790.59;5093111;28;20040;-62
2023/01/01 04:10:23;;;;;;;15.02;2.58;;;;;;;14.31;53.16;100777.25;5094121;28;20036;-62
2023/01/01 04:12:56;;;;;;;12.32;2.58;;;;;;;14.32;53.21;100768.25;5094558;28;20052;-61
2023/01/01 04:15:26;;;;;;;8.73;2.30;;;;;;;14.46;53.04;100773.81;5095203;28;20040;-61
2023/01/01 04:17:53;;;;;;;12.68;2.60;;;;;;;14.42;53.11;100777.84;5092936;28;20419;-62
2023/01/01 04:20:21;;;;;;;9.43;2.50;;;;;;;14.44;53.19;100781.16;5094662;28;20048;-61
2023/01/01 04:22:48;;;;;;;10.77;2.60;;;;;;;14.47;53.46;100772.81;5094033;28;20040;-61
2023/01/01 04:25:16;;;;;;;9.20;2.28;;;;;;;14.49;53.71;100762.78;5094757;28;20044;-61
2023/01/01 04:27:43;;;;;;;9.30;2.53;;;;;;;14.52;53.20;100783.78;5094423;28;20044;-61
2023/01/01 04:30:12;;;;;;;13.38;2.70;;;;;;;14.52;53.57;100776.59;5094532;28;20048;-61
2023/01/01 04:32:39;;;;;;;11.15;2.50;;;;;;;14.67;52.94;100776.66;5094594;28;20044;-61
2023/01/01 04:35:07;;;;;;;12.25;3.20;;;;;;;14.60;53.40;100781.06;5094338;28;20114;-61
2023/01/01 04:37:35;;;;;;;8.32;2.15;;;;;;;14.75;52.83;100776.63;5094343;28;20576;-61
2023/01/01 04:40:03;;;;;;;14.85;2.75;;;;;;;14.70;53.49;100779.00;5094103;28;20417;-61
2023/01/01 04:42:29;;;;;;;10.85;2.50;;;;;;;14.70;53.52;100781.66;5092962;28;20044;-61
2023/01/01 04:44:56;;;;;;;9.40;2.50;;;;;;;14.70;53.33;100789.66;5093905;28;20127;-61
2023/01/01 04:47:25;;;;;;;13.32;2.67;;;;;;;14.65;53.92;100800.06;5076269;28;20044;-61
2023/01/01 04:49:52;;;;;;;13.98;2.60;;;;;;;14.65;53.93;100801.91;5094079;28;20089;-61
2023/01/01 04:52:19;;;;;;;14.23;2.60;;;;;;;14.65;54.06;100804.56;5094346;28;20056;-61
2023/01/01 04:54:46;;;;;;;7.05;2.28;;;;;;;14.64;54.25;100790.38;5093891;28;20044;-61
2023/01/01 04:57:13;;;;;;;10.65;2.47;;;;;;;14.61;54.27;100790.75;5093960;28;20486;-61
2023/01/01 04:59:40;;;;;;;9.13;2.50;;;;;;;14.58;54.26;100794.59;5093985;28;20139;-61
2023/01/01 05:02:07;;;;;;;9.95;2.72;;;;;;;14.54;55.35;100803.13;5094383;28;20093;-61
2023/01/01 05:04:34;;;;;;;10.60;2.47;;;;;;;14.56;54.83;100796.56;5093545;28;20040;-61
2023/01/01 05:07:00;;;;;;;10.23;2.42;;;;;;;14.55;54.67;100807.44;5093343;28;20088;-61
2023/01/01 05:09:27;;;;;;;12.43;2.65;;;;;;;14.56;54.52;100796.56;5093808;28;20137;-61
2023/01/01 05:11:54;;;;;;;10.93;2.47;;;;;;;14.51;55.01;100790.13;5093994;28;20131;-61
2023/01/01 05:14:21;;;;;;;11.55;2.55;;;;;;;14.40;55.70;100805.53;5093465;28;20115;-61
2023/01/01 05:16:48;;;;;;;8.45;2.72;;;;;;;14.48;55.23;100810.00;5093323;28;20115;-61
2023/01/01 05:19:15;;;;;;;9.95;2.30;;;;;;;14.49;55.13;100811.66;5093493;28;20097;-61
2023/01/01 05:21:42;;;;;;;9.55;2.63;;;;;;;14.34;56.02;100814.25;5087509;28;20052;-61
2023/01/01 05:24:09;;;;;;;8.38;2.30;;;;;;;14.28;56.18;100806.97;5072300;28;20045;-62
2023/01/01 05:26:40;;;;;;;9.45;2.40;;;;;;;14.33;55.92;100812.59;5073302;28;20044;-62
2023/01/01 05:29:07;;;;;;;11.35;2.80;;;;;;;14.37;56.06;100802.38;5072421;28;20127;-62
2023/01/01 05:31:39;;;;;;;14.40;2.20;;;;;;;14.30;56.06;100804.13;5071945;28;20059;-62
2023/01/01 05:34:05;;;;;;;10.05;2.40;;;;;;;14.39;56.01;100805.72;5072191;28;20094;-62
2023/01/01 05:36:37;;;;;;;19.77;2.97;;;;;;;14.36;55.60;100825.56;5071828;28;20036;-62
2023/01/01 05:39:06;;;;;;;8.45;2.13;;;;;;;14.37;56.11;100811.25;5073050;28;20044;-62
2023/01/01 05:41:35;;;;;;;11.73;2.63;;;;;;;14.31;56.26;100822.59;5073219;28;20036;-63
2023/01/01 05:44:04;;;;;;;10.13;2.35;;;;;;;14.49;55.31;100824.16;5072755;28;20041;-62
2023/01/01 05:46:31;;;;;;;9.00;2.53;;;;;;;14.36;56.16;100825.56;5089041;28;20047;-62
2023/01/01 05:48:58;;;;;;;11.40;2.40;;;;;;;14.31;56.11;100829.78;5093381;28;20039;-62
2023/01/01 05:51:26;;;;;;;12.73;2.40;;;;;;;14.37;56.30;100827.25;5093584;28;20047;-62
2023/01/01 05:53:54;;;;;;;11.82;2.75;;;;;;;14.26;57.38;100830.34;5092142;28;20048;-62
2023/01/01 05:56:21;;;;;;;8.88;2.90;;;;;;;14.33;56.51;100847.28;5093131;28;20486;-62
2023/01/01 05:58:48;;;;;;;12.55;2.38;;;;;;;14.30;56.41;100847.66;5092789;28;20069;-62
2023/01/01 06:01:19;;;;;;;11.30;2.33;;;;;;;14.35;56.54;100847.09;5093100;28;20040;-62
2023/01/01 06:03:47;;;;;;;12.85;2.90;;;;;;;14.33;56.50;100852.59;5093254;28;20032;-62
2023/01/01 06:06:18;;;;;;;13.40;2.60;;;;;;;14.35;57.45;100863.97;5092746;28;20036;-62
2023/01/01 06:08:51;;;;;;;14.15;2.75;;;;;;;14.35;57.46;100861.28;5092685;28;20071;-62
2023/01/01 06:11:18;;;;;;;13.23;2.55;;;;;;;14.36;57.59;100867.44;5092221;28;20055;-63
2023/01/01 06:13:46;;;;;;;11.30;2.60;;;;;;;14.29;58.52;100867.31;5092809;28;20412;-62
2023/01/01 06:16:13;;;;;;;10.35;2.42;;;;;;;14.28;59.12;100875.50;5093034;28;20036;-63
2023/01/01 06:18:40;;;;;;;15.38;3.50;;;;;;;14.27;58.52;100868.50;5092653;28;20044;-62
2023/01/01 06:21:11;;;;;;;10.23;2.30;;;;;;;14.31;58.03;100861.81;5093280;28;20066;-62
2023/01/01 06:23:38;;;;;;;6.65;2.20;;;;;;;14.34;58.02;100853.47;5092802;28;20101;-63
2023/01/01 06:26:13;;;;;;;10.43;2.40;;;;;;;14.33;58.03;100881.97;5091524;28;20440;-63
2023/01/01 06:28:40;;;;;;;12.13;2.63;;;;;;;14.32;58.32;100877.66;5092847;28;20059;-62
2023/01/01 06:31:09;;;;;;;15.10;2.55;;;;;;;14.40;57.60;100880.25;5092668;28;20121;-63
2023/01/01 06:33:38;;;;;;;14.27;2.83;;;;;;;14.42;58.12;100893.44;5095823;28;20048;-62
2023/01/01 06:36:07;;;;;;;13.35;2.47;;;;;;;14.40;58.36;100898.13;5096345;28;20040;-62
2023/01/01 06:38:37;;;;;;;22.05;2.92;;;;;;;14.48;57.82;100903.41;5096776;28;20489;-62
2023/01/01 06:41:09;;;;;;;10.25;2.30;;;;;;;14.46;57.80;100907.25;5096720;28;20047;-62
2023/01/01 06:43:37;;;;;;;13.93;2.38;;;;;;;14.48;57.55;100905.25;5096474;28;20043;-62
2023/01/01 06:46:21;;;;;;;12.52;2.53;;;;;;;14.44;58.08;100917.28;5095909;28;20055;-62
2023/01/01 06:48:51;;;;;;;13.90;2.67;;;;;;;14.41;58.01;100921.13;5095683;28;20067;-62
2023/01/01 06:51:20;;;;;;;10.30;2.38;;;;;;;14.49;57.59;100929.09;5096347;28;20036;-62
2023/01/01 06:53:48;;;;;;;13.10;2.95;;;;;;;14.45;57.95;100929.63;5096725;28;20044;-62
2023/01/01 06:56:16;;;;;;;9.73;2.30;;;;;;;14.55;57.61;100932.88;5096305;28;20061;-62
2023/01/01 06:58:43;;;;;;;9.45;2.45;;;;;;;14.49;57.39;100931.75;5096035;28;20056;-62
2023/01/01 07:01:13;;;;;;;10.98;2.60;;;;;;;14.49;57.95;100928.25;5096252;28;20063;-62
2023/01/01 07:03:41;;;;;;;8.63;2.50;;;;;;;14.52;57.97;100944.75;5094776;28;20047;-63
2023/01/01 07:06:08;;;;;;;10.80;3.30;;;;;;;14.44;58.11;100926.09;5092790;28;20485;-62
2023/01/01 07:08:35;;;;;;;15.40;2.72;;;;;;;14.45;58.55;100946.47;5054636;28;20048;-63
2023/01/01 07:11:03;;;;;;;10.45;2.60;;;;;;;14.40;58.34;100944.31;5055590;28;20041;-63
2023/01/01 07:13:30;;;;;;;12.27;2.67;;;;;;;14.41;58.49;100953.16;5054342;28;20045;-62
2023/01/01 07:15:58;;;;;;;10.30;2.67;;;;;;;14.42;58.82;100954.00;5078491;28;20075;-63
2023/01/01 07:18:25;;;;;;;7.82;2.60;;;;;;;14.36;58.95;100959.00;5095869;28;20063;-63
2023/01/01 07:20:54;;;;;;;13.18;2.88;;;;;;;14.39;59.52;100955.19;5095495;28;20387;-63
2023/01/01 07:23:21;;;;;;;14.88;2.85;;;;;;;14.31;59.42;100965.88;5080051;28;20169;-63
2023/01/01 07:25:50;;;;;;;10.05;2.70;;;;;;;14.32;59.83;100973.72;5073765;28;20044;-62
2023/01/01 07:28:17;;;;;;;13.13;3.00;;;;;;;14.37;60.04;100994.53;5074636;28;20072;-63
2023/01/01 07:30:45;;;;;;;14.55;2.97;;;;;;;14.30;61.14;100996.25;5075557;28;20048;-63
2023/01/01 07:33:15;;;;;;;10.43;3.05;;;;;;;14.19;61.43;100990.28;5075075;28;20036;-62
2023/01/01 07:35:43;;;;;;;11.52;2.72;;;;;;;14.24;61.82;101003.06;5075439;28;20047;-63
2023/01/01 07:38:11;;;;;;;14.18;3.03;;;;;;;14.18;62.24;100999.25;5073419;28;20387;-62
2023/01/01 07:40:38;;;;;;;10.52;2.63;;;;;;;14.17;62.37;101000.28;5075614;28;20045;-63
2023/01/01 07:43:06;;;;;;;9.57;2.80;;;;;;;14.10;63.60;101001.13;5074998;28;20049;-63
2023/01/01 07:45:33;;;;;;;10.40;2.80;;;;;;;13.96;64.50;100997.34;5082893;28;20054;-63
2023/01/01 07:48:01;;;;;;;13.48;3.17;;;;;;;13.91;64.60;101013.84;5093951;28;20425;-63
2023/01/01 07:50:30;;;;;;;12.65;2.97;;;;;;;13.86;65.28;101023.34;5095450;28;20052;-63
2023/01/01 07:52:57;;;;;;;12.63;2.78;;;;;;;13.78;65.66;101019.69;5095365;28;20048;-62
2023/01/01 07:55:25;;;;;;;12.73;2.65;;;;;;;13.81;66.16;101022.03;5093710;28;20040;-63
2023/01/01 07:57:52;;;;;;;16.77;3.25;;;;;;;13.81;65.91;101015.88;5095076;28;20409;-63
2023/01/01 08:00:20;;;;;;;10.07;3.13;;;;;;;13.75;66.09;101027.19;5095075;28;20052;-63
2023/01/01 08:02:47;;;;;;;11.57;3.00;;;;;;;13.71;66.55;101020.53;5095518;28;20498;-63
2023/01/01 08:05:14;;;;;;;14.57;3.03;;;;;;;13.73;66.48;101027.34;5093899;28;20040;-63
2023/01/01 08:07:47;;;;;;;14.48;2.88;;;;;;;13.71;66.76;101023.19;5094057;28;20493;-63
2023/01/01 08:10:16;;;;;;;20.10;2.92;;;;;;;13.68;66.76;101020.84;5094817;28;20115;-62
2023/01/01 08:12:43;;;;;;;14.90;3.47;;;;;;;13.66;67.08;101025.53;5094720;28;20055;-62
2023/01/01 08:15:10;;;;;;;17.20;4.35;;;;;;;13.62;67.61;101028.53;5095069;28;20298;-63
2023/01/01 08:17:37;;;;;;;16.92;3.65;;;;;;;13.71;67.38;101039.19;5093453;28;20054;-63
2023/01/01 08:20:08;;;;;;;13.20;3.28;;;;;;;13.69;66.58;101047.34;5093984;28;20052;-63
2023/01/01 08:22:35;;;;;;;16.25;3.03;;;;;;;13.71;67.46;101055.19;5093698;28;20521;-63
2023/01/01 08:25:02;;;;;;;11.25;3.22;;;;;;;13.69;67.17;101050.00;5094719;28;20573;-62
2023/01/01 08:27:29;;;;;;;12.35;3.03;;;;;;;13.65;67.18;101038.03;5094581;28;20042;-63
2023/01/01 08:29:56;;;;;;;17.25;3.60;;;;;;;13.65;67.39;101039.88;5093337;28;20040;-63
2023/01/01 08:32:23;;;;;;;17.35;3.33;;;;;;;13.69;67.13;101041.19;5094834;28;20485;-63
2023/01/01 08:34:50;;;;;;;24.20;3.20;;;;;;;13.67;67.01;101049.34;5094286;28;20052;-63
2023/01/01 08:37:20;;;;;;;15.77;3.13;;;;;;;13.66;67.23;101047.69;5094659;28;20040;-63
2023/01/01 08:39:49;;;;;;;12.88;3.33;;;;;;;13.67;67.16;101051.19;5094386;28;20050;-61
2023/01/01 08:42:15;;;;;;;14.25;3.28;;;;;;;13.63;67.47;101064.84;5094403;28;20497;-62
2023/01/01 08:44:43;;;;;;;13.25;3.40;;;;;;;13.71;67.46;101079.19;5093792;28;20052;-62
2023/01/01 08:47:26;;;;;;;23.20;3.80;;;;;;;13.69;67.41;101078.50;5093893;28;20082;-61
2023/01/01 08:49:53;;;;;;;22.02;3.42;;;;;;;13.75;66.77;101086.69;5093223;28;20040;-63
2023/01/01 08:52:20;;;;;;;12.98;3.67;;;;;;;13.75;67.03;101083.16;5092684;28;20077;-62
2023/01/01 08:54:47;;;;;;;14.27;3.50;;;;;;;13.66;67.20;101087.69;5093870;28;20414;-62
2023/01/01 08:57:13;;;;;;;15.80;3.78;;;;;;;13.68;67.44;101098.16;5093683;28;20040;-62
2023/01/01 08:59:40;;;;;;;16.45;3.28;;;;;;;13.60;67.83;101101.66;5092444;28;20492;-61
2023/01/01 09:02:07;;;;;;;18.08;3.47;;;;;;;13.59;68.68;101110.69;5093987;28;20036;-61
2023/01/01 09:04:34;;;;;;;18.10;3.40;;;;;;;13.67;67.97;101115.19;5093846;28;20051;-61
2023/01/01 09:07:00;;;;;;;14.88;3.00;;;;;;;13.60;68.07;101125.66;5093273;28;20035;-61
2023/01/01 09:09:27;;;;;;;15.98;3.67;;;;;;;13.71;68.19;101128.00;5092354;28;20047;-62
2023/01/01 09:12:02;;;;;;;16.75;3.08;;;;;;;13.79;67.68;101119.19;5094167;28;20044;-62
2023/01/01 09:14:29;;;;;;;14.48;3.17;;;;;;;13.75;67.45;101132.03;5093340;28;20067;-61
2023/01/01 09:16:56;;;;;;;13.98;3.38;;;;;;;13.81;68.09;101135.84;5092771;28;20551;-62
2023/01/01 09:19:23;;;;;;;20.20;3.47;;;;;;;13.75;68.07;101141.81;5093617;28;20040;-62
2023/01/01 09:21:50;;;;;;;12.70;3.10;;;;;;;13.73;68.18;101146.50;5093491;28;20047;-62
2023/01/01 09:24:18;;;;;;;15.18;3.05;;;;;;;13.70;68.31;101145.00;5077055;28;20095;-63
2023/01/01 09:26:45;;;;;;;13.45;3.47;;;;;;;13.72;68.15;101153.66;5071078;28;20513;-63
2023/01/01 09:29:12;;;;;;;15.05;3.00;;;;;;;13.68;68.44;101140.81;5072878;28;20097;-62
2023/01/01 09:31:39;;;;;;;12.70;3.38;;;;;;;13.70;67.94;101144.16;5071866;28;20041;-63
2023/01/01 09:34:05;;;;;;;16.27;3.28;;;;;;;13.71;68.70;101154.66;5073578;28;20053;-63
2023/01/01 09:36:32;;;;;;;11.27;3.08;;;;;;;13.81;68.38;101157.19;5073257;28;20049;-63
2023/01/01 09:39:01;;;;;;;9.77;2.70;;;;;;;13.80;68.48;101159.00;5072175;28;20044;-62
2023/01/01 09:46:59;;;;;;;19.38;3.42;;;;;;;13.82;68.74;101153.50;5111192;27;20347;-63
2023/01/01 09:49:33;;;;;;;;;;;;;;;13.92;68.44;101166.69;5110161;28;20036;-60
2023/01/01 09:52:04;;;;;;;15.32;3.22;;;;;;;13.82;68.67;101165.03;5111010;28;20301;-60
2023/01/01 09:54:59;;;;;;;16.52;3.30;;;;;;;13.85;69.16;101160.34;5111262;28;20129;-60
2023/01/01 09:57:30;;;;;;;10.02;3.20;;;;;;;13.80;68.68;101158.16;5110912;28;20044;-60
2023/01/01 09:59:58;;;;;;;16.40;3.43;;;;;;;13.71;69.52;101172.50;5109438;28;20043;-60
2023/01/01 10:02:56;;;;;;;19.25;3.05;;;;;;;13.71;69.59;101191.16;5109851;28;20297;-62
2023/01/01 10:05:41;;;;;;;17.75;3.30;;;;;;;13.74;69.66;101174.84;5080429;28;20077;-62
2023/01/01 10:08:22;;;;;;;11.90;3.50;;;;;;;13.75;69.82;101173.81;5110446;28;20048;-61
2023/01/01 10:11:00;;;;;;;12.00;3.17;;;;;;;13.69;69.94;101183.31;5110807;28;20624;-63
2023/01/01 10:13:44;;;;;;;11.80;3.58;;;;;;;13.68;69.65;101191.47;5110861;28;20300;-63
2023/01/01 10:16:33;;;;;;;14.70;2.92;;;;;;;13.74;69.72;101186.31;5109616;28;20512;-62
2023/01/01 10:19:25;;;;;;;13.15;2.90;;;;;;;13.74;70.02;101177.50;5110700;28;20473;-62
2023/01/01 10:21:58;;;;;;;15.70;3.17;;;;;;;13.72;69.52;101176.84;5110415;28;20130;-63
2023/01/01 10:27:44;;;;;;;12.57;3.15;;;;;;;13.63;70.18;101157.31;5111051;27;20383;-61
2023/01/01 10:30:16;;;;;;;17.73;3.10;;;;;;;13.70;70.01;101150.34;5109858;28;20097;-61
2023/01/01 10:32:48;;;;;;;19.00;3.30;;;;;;;13.69;69.82;101146.00;5111376;28;20139;-61
2023/01/01 10:35:21;;;;;;;20.05;3.47;;;;;;;13.77;69.83;101169.16;5109746;28;20032;-61
2023/01/01 10:37:51;;;;;;;17.38;3.30;;;;;;;13.80;69.06;101153.66;5109677;28;20040;-61
2023/01/01 10:40:20;;;;;;;10.60;2.88;;;;;;;13.75;69.26;101164.00;5110816;28;20054;-61
2023/01/01 10:42:49;;;;;;;16.77;3.90;;;;;;;13.72;69.46;101169.66;5110781;28;20430;-61
2023/01/01 10:45:22;;;;;;;13.13;3.85;;;;;;;13.71;69.61;101178.66;5110326;28;20040;-60
2023/01/01 10:51:06;;;;;;;14.43;2.95;;;;;;;13.76;69.45;101141.66;5131613;27;20120;-63
2023/01/01 10:53:40;;;;;;;19.95;3.38;;;;;;;13.82;68.97;101145.50;5111332;28;20040;-63
2023/01/01 10:56:13;;;;;;;14.52;3.08;;;;;;;13.89;68.58;101141.16;5111494;28;20051;-62
2023/01/01 10:58:51;;;;;;;17.48;3.10;;;;;;;13.82;69.07;101146.34;5110566;28;20119;-62
2023/01/01 11:01:27;;;;;;;12.65;2.83;;;;;;;13.78;69.64;101150.31;5093127;28;20050;-63
2023/01/01 11:04:02;;;;;;;13.23;3.10;;;;;;;13.78;69.71;101146.84;5110965;28;20044;-62
2023/01/01 11:06:34;;;;;;;14.52;3.20;;;;;;;13.78;69.30;101147.66;5110640;28;20047;-63
2023/01/01 11:09:05;;;;;;;13.30;3.20;;;;;;;13.81;69.57;101157.19;5092045;28;20075;-63
2023/01/01 11:11:55;;;;;;;13.63;2.77;;;;;;;13.77;69.25;101163.81;5111109;28;20405;-62
2023/01/01 11:14:33;;;;;;;12.27;2.90;;;;;;;13.81;69.50;101159.84;5110203;28;20043;-63
2023/01/01 11:17:00;;;;;;;12.32;2.53;;;;;;;13.81;69.04;101168.69;5090499;28;20048;-62
2023/01/01 11:19:33;;;;;;;16.48;3.22;;;;;;;13.89;68.81;101177.69;5089693;28;20029;-62
2023/01/01 11:22:00;;;;;;;18.80;3.40;;;;;;;13.85;69.10;101184.34;5090273;28;20409;-62
2023/01/01 11:24:29;;;;;;;10.85;2.95;;;;;;;13.89;68.94;101193.69;5088205;28;20040;-63
2023/01/01 11:27:19;;;;;;;13.40;3.05;;;;;;;13.81;69.96;101178.50;5089639;28;20052;-62
2023/01/01 11:29:46;;;;;;;13.90;2.95;;;;;;;13.79;69.71;101194.69;5089490;28;20549;-62
2023/01/01 11:32:19;;;;;;;16.40;2.97;;;;;;;13.74;69.95;101190.84;5071777;28;20074;-62
2023/01/01 11:34:56;;;;;;;15.48;3.00;;;;;;;13.71;69.81;101189.31;5072381;28;20109;-63
2023/01/01 11:37:27;;;;;;;13.80;2.95;;;;;;;13.66;70.32;101199.66;5071334;28;20044;-63
2023/01/01 11:39:57;;;;;;;12.10;3.00;;;;;;;13.80;69.64;101198.16;5090026;28;20119;-63
2023/01/01 11:42:27;;;;;;;17.65;3.42;;;;;;;13.74;69.82;101188.16;5071926;28;20045;-63
2023/01/01 11:44:58;;;;;;;14.30;3.45;;;;;;;13.73;69.73;101187.31;5071817;28;20504;-62
2023/01/01 11:47:34;;;;;;;12.57;3.60;;;;;;;13.81;69.63;101199.84;5071736;28;20059;-63
2023/01/01 11:50:23;;;;;;;20.95;3.08;;;;;;;13.78;69.67;101193.00;5081756;28;20040;-62
2023/01/01 11:52:52;;;;;;;15.82;3.35;;;;;;;13.80;69.26;101200.84;5088801;28;20040;-63
2023/01/01 11:55:36;;;;;;;15.75;3.50;;;;;;;13.77;69.60;101198.47;5089441;28;20115;-63
2023/01/01 11:58:30;;;;;;;16.15;3.40;;;;;;;13.82;69.26;101190.84;5089486;28;20401;-63
2023/01/01 12:01:02;;;;;;;14.38;2.97;;;;;;;13.86;68.72;101188.66;5082892;28;20053;-63